sensor_id;sensor_type;location;lat;lon;timestamp;pressure;altitude;pressure_sealevel;temperature;humidity
72560;BME280;62987;52.382;9.752;2023-11-19T08:47:21;99943.09;;;12.31;100.00
72560;BME280;62987;52.382;9.752;2023-11-19T08:49:50;99929.72;;;12.46;100.00
72560;BME280;62987;52.382;9.752;2023-11-19T08:52:25;99924.78;;;12.39;100.00
72560;BME280;62987;52.382;9.752;2023-11-19T08:54:54;99932.22;;;12.63;100.00
72560;BME280;62987;52.382;9.752;2023-11-19T08:57:22;99942.28;;;12.86;100.00
72560;BME280;62987;52.382;9.752;2023-11-19T08:59:50;99940.53;;;12.99;100.00
72560;BME280;62987;52.382;9.752;2023-11-19T09:02:26;99911.59;;;12.79;100.00
72560;BME280;62987;52.382;9.752;2023-11-19T09:05:02;99961.06;;;13.40;100.00
72560;BME280;62987;52.382;9.752;2023-11-19T09:07:31;99958.03;;;13.58;100.00
72560;BME280;62987;52.382;9.752;2023-11-19T09:09:59;99961.34;;;13.35;100.00
72560;BME280;62987;52.382;9.752;2023-11-19T09:12:27;99959.69;;;13.20;100.00
72560;BME280;62987;52.382;9.752;2023-11-19T09:14:56;99955.91;;;13.37;100.00
72560;BME280;62987;52.382;9.752;2023-11-19T09:17:26;99963.59;;;13.29;100.00
72560;BME280;62987;52.382;9.752;2023-11-19T09:19:55;99959.34;;;13.39;100.00
72560;BME280;62987;52.382;9.752;2023-11-19T09:22:23;99958.94;;;13.45;100.00
72560;BME280;62987;52.382;9.752;2023-11-19T09:24:52;99966.84;;;14.13;100.00
72560;BME280;62987;52.382;9.752;2023-11-19T09:27:20;99970.25;;;14.15;100.00
72560;BME280;62987;52.382;9.752;2023-11-19T09:29:49;99981.34;;;14.09;100.00
72560;BME280;62987;52.382;9.752;2023-11-19T09:32:25;99964.16;;;14.13;100.00
72560;BME280;62987;52.382;9.752;2023-11-19T09:34:54;99971.66;;;13.81;100.00
72560;BME280;62987;52.382;9.752;2023-11-19T09:37:22;99987.19;;;14.40;100.00
72560;BME280;62987;52.382;9.752;2023-11-19T09:39:50;99969.56;;;14.51;100.00
72560;BME280;62987;52.382;9.752;2023-11-19T09:42:20;99969.19;;;14.80;100.00
72560;BME280;62987;52.382;9.752;2023-11-19T09:44:49;99982.09;;;14.50;100.00
72560;BME280;62987;52.382;9.752;2023-11-19T09:47:19;99981.59;;;15.07;100.00
72560;BME280;62987;52.382;9.752;2023-11-19T09:49:51;99968.78;;;14.61;100.00
72560;BME280;62987;52.382;9.752;2023-11-19T09:52:23;99956.06;;;14.77;100.00
72560;BME280;62987;52.382;9.752;2023-11-19T09:54:53;99970.41;;;14.64;100.00
72560;BME280;62987;52.382;9.752;2023-11-19T09:57:22;99957.88;;;14.39;100.00
72560;BME280;62987;52.382;9.752;2023-11-19T09:59:50;99958.44;;;15.06;100.00
72560;BME280;62987;52.382;9.752;2023-11-19T10:02:20;99958.00;;;16.87;100.00
72560;BME280;62987;52.382;9.752;2023-11-19T10:04:51;99944.34;;;17.44;100.00
72560;BME280;62987;52.382;9.752;2023-11-19T10:07:20;99957.56;;;18.11;100.00
72560;BME280;62987;52.382;9.752;2023-11-19T10:09:52;99958.16;;;17.62;100.00
72560;BME280;62987;52.382;9.752;2023-11-19T10:12:20;99933.28;;;16.26;100.00
72560;BME280;62987;52.382;9.752;2023-11-19T10:14:49;99968.16;;;15.43;100.00
72560;BME280;62987;52.382;9.752;2023-11-19T10:17:19;99954.09;;;16.68;100.00
72560;BME280;62987;52.382;9.752;2023-11-19T10:19:47;99953.22;;;16.79;100.00
72560;BME280;62987;52.382;9.752;2023-11-19T10:22:17;99960.28;;;15.66;100.00
72560;BME280;62987;52.382;9.752;2023-11-19T10:24:45;99956.41;;;17.06;100.00
72560;BME280;62987;52.382;9.752;2023-11-19T10:27:20;99957.06;;;15.84;100.00
72560;BME280;62987;52.382;9.752;2023-11-19T10:29:51;99964.16;;;16.31;100.00
72560;BME280;62987;52.382;9.752;2023-11-19T10:32:20;99949.66;;;16.45;100.00
72560;BME280;62987;52.382;9.752;2023-11-19T10:35:04;99942.72;;;17.64;100.00
72560;BME280;62987;52.382;9.752;2023-11-19T10:37:34;99955.81;;;16.69;100.00
72560;BME280;62987;52.382;9.752;2023-11-19T10:40:05;99962.91;;;17.47;100.00
72560;BME280;62987;52.382;9.752;2023-11-19T10:42:37;99957.03;;;16.76;100.00
72560;BME280;62987;52.382;9.752;2023-11-19T10:47:51;99948.00;;;16.77;100.00
72560;BME280;62987;52.382;9.752;2023-11-19T10:50:20;99951.63;;;17.75;100.00
72560;BME280;62987;52.382;9.752;2023-11-19T10:55:15;99948.09;;;18.58;100.00
72560;BME280;62987;52.382;9.752;2023-11-19T10:57:47;99952.41;;;18.49;100.00
72560;BME280;62987;52.382;9.752;2023-11-19T11:00:18;99930.25;;;17.94;100.00
72560;BME280;62987;52.382;9.752;2023-11-19T11:02:50;99940.59;;;17.35;100.00
72560;BME280;62987;52.382;9.752;2023-11-19T11:05:23;99941.78;;;16.77;100.00
72560;BME280;62987;52.382;9.752;2023-11-19T11:07:55;99942.59;;;17.11;100.00
72560;BME280;62987;52.382;9.752;2023-11-19T11:10:26;99959.44;;;16.46;100.00
72560;BME280;62987;52.382;9.752;2023-11-19T11:12:56;99954.78;;;16.48;100.00
72560;BME280;62987;52.382;9.752;2023-11-19T11:15:27;99949.88;;;16.20;100.00
72560;BME280;62987;52.382;9.752;2023-11-19T11:17:59;99958.06;;;16.40;100.00
72560;BME280;62987;52.382;9.752;2023-11-19T11:20:29;99952.47;;;15.97;100.00
72560;BME280;62987;52.382;9.752;2023-11-19T11:23:15;99954.81;;;16.02;100.00
72560;BME280;62987;52.382;9.752;2023-11-19T11:25:54;99949.81;;;16.99;100.00
72560;BME280;62987;52.382;9.752;2023-11-19T11:28:33;99948.56;;;16.48;100.00
72560;BME280;62987;52.382;9.752;2023-11-19T11:31:12;99949.50;;;15.54;100.00
72560;BME280;62987;52.382;9.752;2023-11-19T11:34:01;99933.22;;;15.21;100.00
72560;BME280;62987;52.382;9.752;2023-11-19T11:36:37;99948.53;;;15.43;100.00
72560;BME280;62987;52.382;9.752;2023-11-19T11:39:12;99953.59;;;15.47;100.00
72560;BME280;62987;52.382;9.752;2023-11-19T11:41:43;99952.19;;;15.54;100.00
72560;BME280;62987;52.382;9.752;2023-11-19T11:44:11;99952.75;;;15.71;100.00
72560;BME280;62987;52.382;9.752;2023-11-19T11:46:53;99963.63;;;15.56;100.00
72560;BME280;62987;52.382;9.752;2023-11-19T11:49:25;99971.56;;;15.58;100.00
72560;BME280;62987;52.382;9.752;2023-11-19T11:52:01;99971.13;;;15.64;100.00
72560;BME280;62987;52.382;9.752;2023-11-19T11:54:31;99958.94;;;15.47;100.00
72560;BME280;62987;52.382;9.752;2023-11-19T11:57:11;99965.25;;;15.23;100.00
72560;BME280;62987;52.382;9.752;2023-11-19T11:59:48;99961.47;;;14.89;100.00
72560;BME280;62987;52.382;9.752;2023-11-19T12:02:18;99961.81;;;15.57;100.00
72560;BME280;62987;52.382;9.752;2023-11-19T12:04:49;99948.13;;;15.49;100.00
72560;BME280;62987;52.382;9.752;2023-11-19T12:07:20;99966.16;;;14.98;100.00
72560;BME280;62987;52.382;9.752;2023-11-19T12:09:52;99952.09;;;15.43;100.00
72560;BME280;62987;52.382;9.752;2023-11-19T12:12:27;99957.28;;;15.34;100.00
72560;BME280;62987;52.382;9.752;2023-11-19T12:15:01;99951.72;;;15.24;100.00
72560;BME280;62987;52.382;9.752;2023-11-19T12:17:43;99939.84;;;14.79;100.00
72560;BME280;62987;52.382;9.752;2023-11-19T12:20:18;99951.91;;;15.10;100.00
72560;BME280;62987;52.382;9.752;2023-11-19T12:22:50;99942.59;;;15.03;100.00
72560;BME280;62987;52.382;9.752;2023-11-19T12:25:20;99942.19;;;14.96;100.00
72560;BME280;62987;52.382;9.752;2023-11-19T12:27:51;99950.38;;;15.18;100.00
72560;BME280;62987;52.382;9.752;2023-11-19T12:30:21;99940.66;;;15.05;100.00
72560;BME280;62987;52.382;9.752;2023-11-19T12:32:52;99955.72;;;14.82;100.00
72560;BME280;62987;52.382;9.752;2023-11-19T12:35:22;99960.69;;;14.50;100.00
72560;BME280;62987;52.382;9.752;2023-11-19T12:37:52;99960.75;;;14.74;100.00
72560;BME280;62987;52.382;9.752;2023-11-19T12:40:22;99958.81;;;14.89;100.00
72560;BME280;62987;52.382;9.752;2023-11-19T12:42:53;99961.69;;;14.86;100.00
72560;BME280;62987;52.382;9.752;2023-11-19T12:45:22;99955.91;;;14.92;100.00
72560;BME280;62987;52.382;9.752;2023-11-19T12:48:04;99961.69;;;14.86;100.00
72560;BME280;62987;52.382;9.752;2023-11-19T12:50:50;99955.06;;;14.66;100.00
72560;BME280;62987;52.382;9.752;2023-11-19T12:53:19;99957.00;;;14.76;100.00
72560;BME280;62987;52.382;9.752;2023-11-19T12:55:47;99965.91;;;14.64;100.00
72560;BME280;62987;52.382;9.752;2023-11-19T12:58:29;99966.09;;;14.74;100.00
72560;BME280;62987;52.382;9.752;2023-11-19T13:01:02;99946.31;;;14.76;100.00
72560;BME280;62987;52.382;9.752;2023-11-19T13:03:32;99952.28;;;14.67;100.00
72560;BME280;62987;52.382;9.752;2023-11-19T13:06:02;99954.41;;;14.88;100.00
72560;BME280;62987;52.382;9.752;2023-11-19T13:08:36;99934.53;;;14.66;100.00
72560;BME280;62987;52.382;9.752;2023-11-19T13:11:06;99946.59;;;14.34;100.00
72560;BME280;62987;52.382;9.752;2023-11-19T13:13:57;99955.31;;;14.50;100.00
72560;BME280;62987;52.382;9.752;2023-11-19T13:16:27;99942.00;;;14.36;100.00
72560;BME280;62987;52.382;9.752;2023-11-19T13:18:57;99947.63;;;14.58;100.00
72560;BME280;62987;52.382;9.752;2023-11-19T13:21:27;99944.16;;;14.18;100.00
72560;BME280;62987;52.382;9.752;2023-11-19T13:23:56;99949.53;;;14.56;100.00
72560;BME280;62987;52.382;9.752;2023-11-19T13:26:24;99938.06;;;14.54;100.00
72560;BME280;62987;52.382;9.752;2023-11-19T13:28:53;99926.06;;;14.34;100.00
72560;BME280;62987;52.382;9.752;2023-11-19T13:31:23;99933.78;;;14.39;100.00
72560;BME280;62987;52.382;9.752;2023-11-19T13:33:52;99927.25;;;14.56;100.00
72560;BME280;62987;52.382;9.752;2023-11-19T13:36:20;99920.38;;;14.26;100.00
72560;BME280;62987;52.382;9.752;2023-11-19T13:38:48;99922.09;;;14.27;100.00
72560;BME280;62987;52.382;9.752;2023-11-19T13:41:20;99926.63;;;14.39;100.00
72560;BME280;62987;52.382;9.752;2023-11-19T13:43:48;99929.16;;;14.28;100.00
72560;BME280;62987;52.382;9.752;2023-11-19T13:46:17;99930.88;;;14.17;100.00
72560;BME280;62987;52.382;9.752;2023-11-19T13:48:47;99922.63;;;14.32;100.00
72560;BME280;62987;52.382;9.752;2023-11-19T13:51:16;99916.41;;;14.07;100.00
72560;BME280;62987;52.382;9.752;2023-11-19T13:53:45;99925.53;;;14.17;100.00
72560;BME280;62987;52.382;9.752;2023-11-19T13:56:17;99922.75;;;14.31;100.00
72560;BME280;62987;52.382;9.752;2023-11-19T13:58:45;99927.59;;;14.26;100.00
72560;BME280;62987;52.382;9.752;2023-11-19T14:01:14;99922.41;;;14.73;100.00
72560;BME280;62987;52.382;9.752;2023-11-19T14:03:42;99921.25;;;14.65;100.00
72560;BME280;62987;52.382;9.752;2023-11-19T14:06:12;99911.22;;;14.43;100.00
72560;BME280;62987;52.382;9.752;2023-11-19T14:08:41;99925.31;;;14.20;100.00
72560;BME280;62987;52.382;9.752;2023-11-19T14:11:10;99924.28;;;14.48;100.00
72560;BME280;62987;52.382;9.752;2023-11-19T14:13:38;99911.72;;;14.23;100.00
72560;BME280;62987;52.382;9.752;2023-11-19T14:16:07;99938.16;;;14.65;100.00
72560;BME280;62987;52.382;9.752;2023-11-19T14:18:36;99928.09;;;14.69;100.00
72560;BME280;62987;52.382;9.752;2023-11-19T14:21:05;99925.31;;;14.20;100.00
72560;BME280;62987;52.382;9.752;2023-11-19T14:23:35;99931.19;;;14.75;100.00
72560;BME280;62987;52.382;9.752;2023-11-19T14:26:04;99911.63;;;14.62;100.00
72560;BME280;62987;52.382;9.752;2023-11-19T14:28:33;99913.88;;;14.68;100.00
72560;BME280;62987;52.382;9.752;2023-11-19T14:31:13;99900.09;;;14.49;100.00
72560;BME280;62987;52.382;9.752;2023-11-19T14:33:41;99928.31;;;14.53;100.00
72560;BME280;62987;52.382;9.752;2023-11-19T14:36:10;99926.38;;;14.17;100.00
72560;BME280;62987;52.382;9.752;2023-11-19T14:38:38;99931.75;;;14.17;100.00
72560;BME280;62987;52.382;9.752;2023-11-19T14:41:42;99933.44;;;14.06;100.00
72560;BME280;62987;52.382;9.752;2023-11-19T14:44:10;99920.59;;;13.85;100.00
72560;BME280;62987;52.382;9.752;2023-11-19T14:46:39;99923.91;;;14.01;100.00
72560;BME280;62987;52.382;9.752;2023-11-19T14:49:08;99935.75;;;13.85;100.00
72560;BME280;62987;52.382;9.752;2023-11-19T14:51:36;99925.84;;;13.99;100.00
72560;BME280;62987;52.382;9.752;2023-11-19T14:54:05;99919.66;;;14.12;100.00
72560;BME280;62987;52.382;9.752;2023-11-19T14:56:33;99902.91;;;13.70;100.00
72560;BME280;62987;52.382;9.752;2023-11-19T14:59:03;99924.22;;;13.84;100.00
72560;BME280;62987;52.382;9.752;2023-11-19T15:01:32;99922.03;;;13.64;100.00
72560;BME280;62987;52.382;9.752;2023-11-19T15:04:00;99929.09;;;13.65;100.00
72560;BME280;62987;52.382;9.752;2023-11-19T15:06:32;99937.16;;;13.51;100.00
72560;BME280;62987;52.382;9.752;2023-11-19T15:09:01;99913.88;;;13.53;100.00
72560;BME280;62987;52.382;9.752;2023-11-19T15:11:29;99926.88;;;13.45;100.00
72560;BME280;62987;52.382;9.752;2023-11-19T15:13:58;99922.00;;;13.10;100.00
72560;BME280;62987;52.382;9.752;2023-11-19T15:16:29;99922.94;;;13.24;100.00
72560;BME280;62987;52.382;9.752;2023-11-19T15:19:01;99914.44;;;12.90;100.00
72560;BME280;62987;52.382;9.752;2023-11-19T15:21:30;99924.38;;;12.74;100.00
72560;BME280;62987;52.382;9.752;2023-11-19T15:23:59;99912.66;;;12.76;100.00
72560;BME280;62987;52.382;9.752;2023-11-19T15:26:28;99927.59;;;12.93;100.00
72560;BME280;62987;52.382;9.752;2023-11-19T15:28:56;99946.88;;;12.27;100.00
72560;BME280;62987;52.382;9.752;2023-11-19T15:31:25;99944.31;;;12.40;100.00
72560;BME280;62987;52.382;9.752;2023-11-19T15:33:55;99928.97;;;14.31;100.00
72560;BME280;62987;52.382;9.752;2023-11-19T15:36:24;99931.63;;;13.54;100.00
72560;BME280;62987;52.382;9.752;2023-11-19T15:38:52;99935.50;;;13.75;100.00
72560;BME280;62987;52.382;9.752;2023-11-19T15:41:21;99940.63;;;13.66;100.00
72560;BME280;62987;52.382;9.752;2023-11-19T15:43:50;99933.75;;;14.01;100.00
72560;BME280;62987;52.382;9.752;2023-11-19T15:46:18;99919.09;;;14.07;100.00
72560;BME280;62987;52.382;9.752;2023-11-19T15:48:47;99922.63;;;14.20;100.00
72560;BME280;62987;52.382;9.752;2023-11-19T15:51:17;99934.09;;;14.09;100.00
72560;BME280;62987;52.382;9.752;2023-11-19T15:53:45;99935.50;;;14.40;100.00
72560;BME280;62987;52.382;9.752;2023-11-19T15:56:14;99960.28;;;13.91;100.00
72560;BME280;62987;52.382;9.752;2023-11-19T15:58:43;99953.09;;;13.79;100.00
72560;BME280;62987;52.382;9.752;2023-11-19T16:01:11;99945.00;;;14.19;100.00
72560;BME280;62987;52.382;9.752;2023-11-19T16:03:39;99955.59;;;13.68;100.00
72560;BME280;62987;52.382;9.752;2023-11-19T16:06:13;99957.59;;;13.91;100.00
72560;BME280;62987;52.382;9.752;2023-11-19T16:08:44;99925.53;;;13.11;100.00
72560;BME280;62987;52.382;9.752;2023-11-19T16:11:12;99938.97;;;13.09;100.00
72560;BME280;62987;52.382;9.752;2023-11-19T16:13:41;99941.00;;;13.47;100.00
72560;BME280;62987;52.382;9.752;2023-11-19T16:16:10;99948.97;;;13.61;100.00
72560;BME280;62987;52.382;9.752;2023-11-19T16:18:38;99933.00;;;13.47;100.00
72560;BME280;62987;52.382;9.752;2023-11-19T16:21:07;99923.94;;;13.35;100.00
72560;BME280;62987;52.382;9.752;2023-11-19T16:23:35;99940.25;;;13.84;100.00
72560;BME280;62987;52.382;9.752;2023-11-19T16:26:06;99941.63;;;13.77;100.00
72560;BME280;62987;52.382;9.752;2023-11-19T16:28:34;99944.31;;;13.77;100.00
72560;BME280;62987;52.382;9.752;2023-11-19T16:31:03;99944.81;;;13.43;100.00
72560;BME280;62987;52.382;9.752;2023-11-19T16:33:31;99940.31;;;13.70;100.00
72560;BME280;62987;52.382;9.752;2023-11-19T16:36:02;99943.34;;;13.78;100.00
72560;BME280;62987;52.382;9.752;2023-11-19T16:38:30;99941.13;;;13.85;100.00
72560;BME280;62987;52.382;9.752;2023-11-19T16:41:00;99940.38;;;13.95;100.00
72560;BME280;62987;52.382;9.752;2023-11-19T16:43:30;99943.88;;;13.83;100.00
72560;BME280;62987;52.382;9.752;2023-11-19T16:45:58;99944.56;;;13.99;100.00
72560;BME280;62987;52.382;9.752;2023-11-19T16:48:26;99941.50;;;13.66;100.00
72560;BME280;62987;52.382;9.752;2023-11-19T16:50:55;99933.22;;;13.56;100.00
72560;BME280;62987;52.382;9.752;2023-11-19T16:53:26;99948.75;;;13.64;100.00
72560;BME280;62987;52.382;9.752;2023-11-19T16:55:55;99952.19;;;13.66;100.00
72560;BME280;62987;52.382;9.752;2023-11-19T16:58:23;99945.19;;;13.90;100.00
72560;BME280;62987;52.382;9.752;2023-11-19T17:00:53;99949.06;;;13.99;100.00
72560;BME280;62987;52.382;9.752;2023-11-19T17:03:25;99946.88;;;13.79;100.00
72560;BME280;62987;52.382;9.752;2023-11-19T17:05:53;99956.94;;;14.00;100.00
72560;BME280;62987;52.382;9.752;2023-11-19T17:08:21;99956.34;;;13.70;100.00
72560;BME280;62987;52.382;9.752;2023-11-19T17:10:51;99945.38;;;13.87;100.00
72560;BME280;62987;52.382;9.752;2023-11-19T17:13:20;99946.53;;;13.71;100.00
72560;BME280;62987;52.382;9.752;2023-11-19T17:15:49;99951.28;;;13.53;100.00
72560;BME280;62987;52.382;9.752;2023-11-19T17:18:20;99955.59;;;13.68;100.00
72560;BME280;62987;52.382;9.752;2023-11-19T17:20:48;99948.91;;;13.22;100.00
72560;BME280;62987;52.382;9.752;2023-11-19T17:23:16;99959.88;;;13.71;100.00
72560;BME280;62987;52.382;9.752;2023-11-19T17:25:45;99955.22;;;13.47;100.00
72560;BME280;62987;52.382;9.752;2023-11-19T17:28:14;99956.81;;;13.77;100.00
72560;BME280;62987;52.382;9.752;2023-11-19T17:30:43;99954.31;;;13.61;100.00
72560;BME280;62987;52.382;9.752;2023-11-19T17:33:11;99945.78;;;13.42;100.00
72560;BME280;62987;52.382;9.752;2023-11-19T17:35:41;99955.56;;;13.55;100.00
72560;BME280;62987;52.382;9.752;2023-11-19T17:38:09;99948.25;;;13.72;100.00
72560;BME280;62987;52.382;9.752;2023-11-19T17:40:41;99956.00;;;13.62;100.00
72560;BME280;62987;52.382;9.752;2023-11-19T17:43:10;99951.09;;;13.69;100.00
72560;BME280;62987;52.382;9.752;2023-11-19T17:45:38;99945.63;;;13.57;100.00
72560;BME280;62987;52.382;9.752;2023-11-19T17:48:07;99941.00;;;13.47;100.00
72560;BME280;62987;52.382;9.752;2023-11-19T17:50:35;99947.94;;;13.76;100.00
72560;BME280;62987;52.382;9.752;2023-11-19T17:53:05;99940.41;;;13.69;100.00
72560;BME280;62987;52.382;9.752;2023-11-19T17:55:34;99949.94;;;13.60;100.00
72560;BME280;62987;52.382;9.752;2023-11-19T17:58:02;99946.22;;;13.75;100.00
72560;BME280;62987;52.382;9.752;2023-11-19T18:00:31;99948.88;;;13.75;100.00
72560;BME280;62987;52.382;9.752;2023-11-19T18:02:59;99950.09;;;13.84;100.00
72560;BME280;62987;52.382;9.752;2023-11-19T18:05:28;99940.19;;;13.59;100.00
72560;BME280;62987;52.382;9.752;2023-11-19T18:07:57;99954.53;;;13.71;100.00
72560;BME280;62987;52.382;9.752;2023-11-19T18:10:27;99944.22;;;13.52;100.00
72560;BME280;62987;52.382;9.752;2023-11-19T18:12:55;99949.31;;;13.42;100.00
72560;BME280;62987;52.382;9.752;2023-11-19T18:15:24;99947.34;;;13.32;100.00
72560;BME280;62987;52.382;9.752;2023-11-19T18:17:53;99948.66;;;13.39;100.00
72560;BME280;62987;52.382;9.752;2023-11-19T18:20:22;99950.78;;;13.34;100.00
72560;BME280;62987;52.382;9.752;2023-11-19T18:22:50;99935.91;;;13.30;100.00
72560;BME280;62987;52.382;9.752;2023-11-19T18:25:21;99959.50;;;13.50;100.00
72560;BME280;62987;52.382;9.752;2023-11-19T18:27:51;99947.94;;;13.23;100.00
72560;BME280;62987;52.382;9.752;2023-11-19T18:30:20;99956.47;;;13.42;100.00
72560;BME280;62987;52.382;9.752;2023-11-19T18:32:48;99950.38;;;13.40;100.00
72560;BME280;62987;52.382;9.752;2023-11-19T18:35:17;99953.59;;;13.45;100.00
72560;BME280;62987;52.382;9.752;2023-11-19T18:37:51;99956.34;;;13.70;100.00
72560;BME280;62987;52.382;9.752;2023-11-19T18:40:20;99953.91;;;13.40;100.00
72560;BME280;62987;52.382;9.752;2023-11-19T18:42:50;99971.09;;;13.63;100.00
72560;BME280;62987;52.382;9.752;2023-11-19T18:45:21;99949.44;;;13.41;100.00
72560;BME280;62987;52.382;9.752;2023-11-19T18:47:50;99967.91;;;13.71;100.00
72560;BME280;62987;52.382;9.752;2023-11-19T18:50:19;99969.81;;;13.42;100.00
72560;BME280;62987;52.382;9.752;2023-11-19T18:52:48;99976.19;;;13.27;100.00
72560;BME280;62987;52.382;9.752;2023-11-19T18:55:17;99969.59;;;13.59;100.00
72560;BME280;62987;52.382;9.752;2023-11-19T18:57:45;99968.94;;;13.29;100.00
72560;BME280;62987;52.382;9.752;2023-11-19T19:00:16;99971.03;;;13.50;100.00
72560;BME280;62987;52.382;9.752;2023-11-19T19:02:45;99962.56;;;13.44;100.00
72560;BME280;62987;52.382;9.752;2023-11-19T19:05:19;99962.06;;;13.25;100.00
72560;BME280;62987;52.382;9.752;2023-11-19T19:07:48;99955.31;;;13.46;100.00
72560;BME280;62987;52.382;9.752;2023-11-19T19:10:16;99960.13;;;13.41;100.00
72560;BME280;62987;52.382;9.752;2023-11-19T19:12:45;99964.72;;;13.25;100.00
72560;BME280;62987;52.382;9.752;2023-11-19T19:15:15;99975.78;;;13.33;100.00
72560;BME280;62987;52.382;9.752;2023-11-19T19:17:43;99972.84;;;13.50;100.00
72560;BME280;62987;52.382;9.752;2023-11-19T19:20:12;99971.88;;;13.10;100.00
72560;BME280;62987;52.382;9.752;2023-11-19T19:22:41;99982.69;;;13.08;100.00
72560;BME280;62987;52.382;9.752;2023-11-19T19:25:10;99961.09;;;13.11;100.00
72560;BME280;62987;52.382;9.752;2023-11-19T19:27:38;99975.97;;;13.30;100.00
72560;BME280;62987;52.382;9.752;2023-11-19T19:30:07;99968.13;;;13.41;100.00
72560;BME280;62987;52.382;9.752;2023-11-19T19:32:39;99969.97;;;13.80;100.00
72560;BME280;62987;52.382;9.752;2023-11-19T19:35:11;99966.91;;;13.59;100.00
72560;BME280;62987;52.382;9.752;2023-11-19T19:37:40;99951.88;;;13.44;100.00
72560;BME280;62987;52.382;9.752;2023-11-19T19:40:10;99963.53;;;13.43;100.00
72560;BME280;62987;52.382;9.752;2023-11-19T19:42:41;99971.31;;;13.33;100.00
72560;BME280;62987;52.382;9.752;2023-11-19T19:45:10;99969.03;;;13.27;100.00
72560;BME280;62987;52.382;9.752;2023-11-19T19:47:41;99958.34;;;13.54;100.00
72560;BME280;62987;52.382;9.752;2023-11-19T19:50:10;99945.84;;;13.28;100.00
72560;BME280;62987;52.382;9.752;2023-11-19T19:52:40;99961.41;;;13.21;100.00
72560;BME280;62987;52.382;9.752;2023-11-19T19:55:09;99957.03;;;13.47;100.00
72560;BME280;62987;52.382;9.752;2023-11-19T19:57:39;99950.28;;;13.41;100.00
72560;BME280;62987;52.382;9.752;2023-11-19T20:00:08;99957.97;;;13.19;100.00
72560;BME280;62987;52.382;9.752;2023-11-19T20:02:43;99955.91;;;13.37;100.00
72560;BME280;62987;52.382;9.752;2023-11-19T20:05:12;99955.22;;;13.20;100.00
72560;BME280;62987;52.382;9.752;2023-11-19T20:07:43;99958.06;;;13.17;100.00
72560;BME280;62987;52.382;9.752;2023-11-19T20:10:12;99954.91;;;13.52;100.00
72560;BME280;62987;52.382;9.752;2023-11-19T20:12:41;99957.28;;;13.30;100.00
72560;BME280;62987;52.382;9.752;2023-11-19T20:15:10;99953.00;;;13.54;100.00
72560;BME280;62987;52.382;9.752;2023-11-19T20:17:40;99951.84;;;13.31;100.00
72560;BME280;62987;52.382;9.752;2023-11-19T20:20:11;99960.72;;;13.58;100.00
72560;BME280;62987;52.382;9.752;2023-11-19T20:22:40;99951.03;;;13.43;100.00
72560;BME280;62987;52.382;9.752;2023-11-19T20:25:09;99948.44;;;13.42;100.00
72560;BME280;62987;52.382;9.752;2023-11-19T20:27:38;99950.28;;;13.41;100.00
72560;BME280;62987;52.382;9.752;2023-11-19T20:30:08;99949.97;;;13.46;100.00
72560;BME280;62987;52.382;9.752;2023-11-19T20:32:37;99949.94;;;13.33;100.00
72560;BME280;62987;52.382;9.752;2023-11-19T20:35:08;99957.53;;;13.39;100.00
72560;BME280;62987;52.382;9.752;2023-11-19T20:37:38;99952.28;;;13.38;100.00
72560;BME280;62987;52.382;9.752;2023-11-19T20:40:08;99949.88;;;13.47;100.00
72560;BME280;62987;52.382;9.752;2023-11-19T20:42:38;99943.72;;;13.33;100.00
72560;BME280;62987;52.382;9.752;2023-11-19T20:45:07;99955.09;;;13.49;100.00
72560;BME280;62987;52.382;9.752;2023-11-19T20:47:37;99956.94;;;13.22;100.00
72560;BME280;62987;52.382;9.752;2023-11-19T20:50:06;99949.66;;;13.24;100.00
72560;BME280;62987;52.382;9.752;2023-11-19T20:52:36;99952.75;;;13.44;100.00
72560;BME280;62987;52.382;9.752;2023-11-19T20:55:07;99937.47;;;13.46;100.00
72560;BME280;62987;52.382;9.752;2023-11-19T20:57:38;99945.31;;;13.35;100.00
72560;BME280;62987;52.382;9.752;2023-11-19T21:00:07;99935.09;;;13.42;100.00
72560;BME280;62987;52.382;9.752;2023-11-19T21:02:40;99940.97;;;13.34;100.00
72560;BME280;62987;52.382;9.752;2023-11-19T21:05:09;99939.59;;;13.14;100.00
72560;BME280;62987;52.382;9.752;2023-11-19T21:07:37;99940.06;;;12.93;100.00
72560;BME280;62987;52.382;9.752;2023-11-19T21:10:09;99923.56;;;13.14;100.00
72560;BME280;62987;52.382;9.752;2023-11-19T21:12:40;99928.34;;;12.95;100.00
72560;BME280;62987;52.382;9.752;2023-11-19T21:15:09;99939.84;;;13.24;100.00
72560;BME280;62987;52.382;9.752;2023-11-19T21:17:37;99937.56;;;13.04;100.00
72560;BME280;62987;52.382;9.752;2023-11-19T21:20:30;99913.13;;;12.83;100.00
72560;BME280;62987;52.382;9.752;2023-11-19T21:23:07;99934.56;;;12.96;100.00
72560;BME280;62987;52.382;9.752;2023-11-19T21:25:37;99923.25;;;13.05;100.00
72560;BME280;62987;52.382;9.752;2023-11-19T21:28:09;99922.28;;;12.65;100.00
72560;BME280;62987;52.382;9.752;2023-11-19T21:30:40;99919.19;;;12.99;100.00
72560;BME280;62987;52.382;9.752;2023-11-19T21:33:08;99915.34;;;13.03;100.00
72560;BME280;62987;52.382;9.752;2023-11-19T21:35:42;99903.75;;;13.31;100.00
72560;BME280;62987;52.382;9.752;2023-11-19T21:39:05;99916.50;;;13.13;100.00
72560;BME280;62987;52.382;9.752;2023-11-19T21:41:36;99918.22;;;13.14;100.00
72560;BME280;62987;52.382;9.752;2023-11-19T21:44:05;99915.16;;;13.20;100.00
72560;BME280;62987;52.382;9.752;2023-11-19T21:46:33;99914.59;;;13.15;100.00
72560;BME280;62987;52.382;9.752;2023-11-19T21:49:02;99906.00;;;13.10;100.00
72560;BME280;62987;52.382;9.752;2023-11-19T21:51:30;99897.16;;;13.37;100.00
72560;BME280;62987;52.382;9.752;2023-11-19T21:53:59;99898.09;;;13.09;100.00
72560;BME280;62987;52.382;9.752;2023-11-19T21:56:29;99891.66;;;13.26;100.00
72560;BME280;62987;52.382;9.752;2023-11-19T21:58:58;99896.38;;;13.08;100.00